createdAt,value
2023-01-11T00:00:18.969Z,9.443693
2023-01-11T00:01:18.980Z,9.443727
2023-01-11T00:02:18.973Z,9.443707
2023-01-11T00:03:18.976Z,9.443686
2023-01-11T00:04:19.031Z,9.443722
2023-01-11T00:05:18.932Z,9.443753
2023-01-11T00:06:18.944Z,9.443772
2023-01-11T00:07:18.967Z,9.443767
2023-01-11T00:08:18.925Z,9.443706
2023-01-11T00:09:18.924Z,9.443662
2023-01-11T00:10:18.922Z,9.443703
2023-01-11T00:11:18.892Z,9.443694
2023-01-11T00:12:18.910Z,9.443696
2023-01-11T00:13:18.952Z,9.443659
2023-01-11T00:14:18.881Z,9.443641
2023-01-11T00:15:18.897Z,9.443621
2023-01-11T00:16:18.926Z,9.443663
2023-01-11T00:17:18.866Z,9.443679
2023-01-11T00:18:18.873Z,9.443671
2023-01-11T00:19:18.869Z,9.443706
2023-01-11T00:20:18.877Z,9.443708
2023-01-11T00:21:18.850Z,9.443733
2023-01-11T00:22:18.846Z,9.443726
2023-01-11T00:23:18.834Z,9.443686
2023-01-11T00:24:18.817Z,9.443740
2023-01-11T00:25:18.893Z,9.443757
2023-01-11T00:26:18.821Z,9.443811
2023-01-11T00:27:18.810Z,9.443773
2023-01-11T00:28:18.825Z,9.443806
2023-01-11T00:29:18.802Z,9.443785
2023-01-11T00:30:18.792Z,9.443742
2023-01-11T00:31:18.851Z,9.443676
2023-01-11T00:32:18.772Z,9.443691
2023-01-11T00:33:18.772Z,9.443666
2023-01-11T00:34:18.800Z,9.443661
2023-01-11T00:35:18.772Z,9.443735
2023-01-11T00:36:18.765Z,9.443745
2023-01-11T00:37:18.834Z,9.443761
2023-01-11T00:38:18.728Z,9.443775
2023-01-11T00:39:18.734Z,9.443734
2023-01-11T00:40:18.736Z,9.443723
2023-01-11T00:41:18.803Z,9.443722
2023-01-11T00:42:18.716Z,9.443694
2023-01-11T00:43:18.700Z,9.443703
2023-01-11T00:44:18.704Z,9.443686
2023-01-11T00:45:18.780Z,9.443694
2023-01-11T00:46:18.753Z,9.443707
2023-01-11T00:47:18.687Z,9.443723
2023-01-11T00:48:18.697Z,9.443707
2023-01-11T00:49:18.672Z,9.443722
2023-01-11T00:50:18.657Z,9.443736
2023-01-11T00:51:19.711Z,9.443689
2023-01-11T00:52:18.650Z,9.443695
2023-01-11T00:53:18.648Z,9.443701
2023-01-11T00:54:18.699Z,9.443709
2023-01-11T00:55:18.632Z,9.443723
2023-01-11T00:56:18.638Z,9.443791
2023-01-11T00:57:18.653Z,9.443767
2023-01-11T00:58:18.612Z,9.443722
2023-01-11T00:59:18.610Z,9.443719
2023-01-11T01:00:18.603Z,9.443719
2023-01-11T01:01:18.656Z,9.443720
2023-01-11T01:02:18.633Z,9.443758
2023-01-11T01:03:18.589Z,9.443737
2023-01-11T01:04:18.597Z,9.443700
2023-01-11T01:05:18.593Z,9.443652
2023-01-11T01:06:18.578Z,9.443698
2023-01-11T01:07:18.581Z,9.443782
2023-01-11T01:08:18.580Z,9.443727
2023-01-11T01:09:18.553Z,9.443705
2023-01-11T01:10:18.608Z,9.443720
2023-01-11T01:11:18.563Z,9.443700
2023-01-11T01:12:18.531Z,9.443720
2023-01-11T01:13:18.569Z,9.443723
2023-01-11T01:14:18.529Z,9.443665
2023-01-11T01:15:18.513Z,9.443760
2023-01-11T01:16:18.547Z,9.443629
2023-01-11T01:17:18.507Z,9.443634
2023-01-11T01:18:18.517Z,9.443613
2023-01-11T01:19:18.489Z,9.443663
2023-01-11T01:20:18.509Z,9.443663
2023-01-11T01:21:18.491Z,9.443733
2023-01-11T01:22:18.469Z,9.443742
2023-01-11T01:23:18.483Z,9.443723
2023-01-11T01:24:18.499Z,9.443657
2023-01-11T01:25:18.449Z,9.443748
2023-01-11T01:26:18.450Z,9.443631
2023-01-11T01:27:18.480Z,9.443721
2023-01-11T01:28:18.449Z,9.443739
2023-01-11T01:29:18.508Z,9.443728
2023-01-11T01:30:18.425Z,9.443677
2023-01-11T01:31:18.473Z,9.443703
2023-01-11T01:32:18.440Z,9.443751
2023-01-11T01:33:18.432Z,9.443680
2023-01-11T01:34:18.456Z,9.443666
2023-01-11T01:35:18.404Z,9.443715
2023-01-11T01:36:18.391Z,9.443745
2023-01-11T01:37:18.377Z,9.443805
2023-01-11T01:38:18.404Z,9.443836
2023-01-11T01:39:18.369Z,9.443768
2023-01-11T01:40:18.382Z,9.443606
2023-01-11T01:41:18.379Z,9.443729
2023-01-11T01:42:18.359Z,9.443774
2023-01-11T01:43:18.350Z,9.443830
2023-01-11T01:44:18.356Z,9.443781
2023-01-11T01:45:18.346Z,9.443649
2023-01-11T01:46:18.369Z,9.443686
2023-01-11T01:47:18.351Z,9.443789
2023-01-11T01:48:18.311Z,9.443773
2023-01-11T01:49:18.308Z,9.443773
2023-01-11T01:50:18.353Z,9.443770
2023-01-11T01:51:18.304Z,9.443748
2023-01-11T01:52:18.303Z,9.443729
2023-01-11T01:53:18.324Z,9.443720
2023-01-11T01:54:18.299Z,9.443683
2023-01-11T01:55:18.317Z,9.443723
2023-01-11T01:56:18.304Z,9.443787
2023-01-11T01:57:18.270Z,9.443801
2023-01-11T01:58:18.262Z,9.443780
2023-01-11T01:59:18.337Z,9.443765
2023-01-11T02:00:18.268Z,9.443769
2023-01-11T02:01:18.270Z,9.443739
2023-01-11T02:02:18.274Z,9.443803
2023-01-11T02:03:18.227Z,9.443802
2023-01-11T02:04:18.227Z,9.443753
2023-01-11T02:05:18.230Z,9.443754
2023-01-11T02:06:18.252Z,9.443763
2023-01-11T02:07:18.209Z,9.443798
2023-01-11T02:08:18.202Z,9.443768
2023-01-11T02:09:18.200Z,9.443764
2023-01-11T02:10:18.189Z,9.443730
2023-01-11T02:11:18.208Z,9.443717
2023-01-11T02:12:18.189Z,9.443746
2023-01-11T02:13:18.165Z,9.443793
2023-01-11T02:14:18.186Z,9.443745
2023-01-11T02:15:18.149Z,9.443752
2023-01-11T02:16:18.200Z,9.443776
2023-01-11T02:17:18.185Z,9.443781
2023-01-11T02:18:18.165Z,9.443736
2023-01-11T02:19:18.134Z,9.443739
2023-01-11T02:20:18.150Z,9.443747
2023-01-11T02:21:18.118Z,9.443755
2023-01-11T02:22:18.118Z,9.443732
2023-01-11T02:23:18.151Z,9.443631
2023-01-11T02:24:18.105Z,9.443640
2023-01-11T02:25:18.082Z,9.443670
2023-01-11T02:26:19.104Z,9.443740
2023-01-11T02:27:18.085Z,9.443785
2023-01-11T02:28:18.090Z,9.443744
2023-01-11T02:29:18.131Z,9.443708
2023-01-11T02:30:18.074Z,9.443851
2023-01-11T02:31:19.615Z,9.443808
2023-01-11T02:32:18.081Z,9.443719
2023-01-11T02:33:18.082Z,9.443628
2023-01-11T02:34:19.068Z,9.443648
2023-01-11T02:35:18.034Z,9.443719
2023-01-11T02:36:18.025Z,9.443657
2023-01-11T02:37:18.031Z,9.443706
2023-01-11T02:38:18.024Z,9.443765
2023-01-11T02:39:18.029Z,9.443728
2023-01-11T02:40:18.034Z,9.443713
2023-01-11T02:41:17.999Z,9.443741
2023-01-11T02:42:18.009Z,9.443693
2023-01-11T02:43:18.005Z,9.443679
2023-01-11T02:44:18.019Z,9.443812
2023-01-11T02:45:17.992Z,9.443669
2023-01-11T02:46:18.008Z,9.443604
2023-01-11T02:47:17.958Z,9.443687
2023-01-11T02:48:17.985Z,9.443653
2023-01-11T02:49:17.951Z,9.443678
2023-01-11T02:50:17.997Z,9.443672
2023-01-11T02:51:17.959Z,9.443682
2023-01-11T02:52:17.939Z,9.443698
2023-01-11T02:53:17.947Z,9.443660
2023-01-11T02:54:17.934Z,9.443655
2023-01-11T02:55:17.932Z,9.443731
2023-01-11T02:56:17.925Z,9.443610
2023-01-11T02:57:17.918Z,9.443743
2023-01-11T02:58:17.902Z,9.443878
2023-01-11T02:59:17.899Z,9.443789
2023-01-11T03:00:17.937Z,9.443713
2023-01-11T03:01:17.934Z,9.443615
2023-01-11T03:02:17.881Z,9.443677
2023-01-11T03:03:17.879Z,9.443667
2023-01-11T03:04:17.864Z,9.443678
2023-01-11T03:05:17.884Z,9.443640
2023-01-11T03:06:17.891Z,9.443624
2023-01-11T03:07:17.848Z,9.443612
2023-01-11T03:08:17.834Z,9.443676
2023-01-11T03:09:17.898Z,9.443698
2023-01-11T03:10:17.821Z,9.443698
2023-01-11T03:11:17.839Z,9.443745
2023-01-11T03:12:17.821Z,9.443675
2023-01-11T03:13:17.814Z,9.443541
2023-01-11T03:14:17.806Z,9.443544
2023-01-11T03:15:17.821Z,9.443675
2023-01-11T03:16:18.874Z,9.443521
2023-01-11T03:17:17.794Z,9.443674
2023-01-11T03:18:17.807Z,9.443728
2023-01-11T03:19:17.795Z,9.443632
2023-01-11T03:20:17.766Z,9.443695
2023-01-11T03:21:17.844Z,9.443666
2023-01-11T03:22:17.788Z,9.443665
2023-01-11T03:23:17.763Z,9.443689
2023-01-11T03:24:17.757Z,9.443706
2023-01-11T03:25:17.802Z,9.443749
2023-01-11T03:26:17.747Z,9.443686
2023-01-11T03:27:17.749Z,9.443683
2023-01-11T03:28:17.758Z,9.443707
2023-01-11T03:29:17.718Z,9.443694
2023-01-11T03:30:17.725Z,9.443669
2023-01-11T03:31:17.769Z,9.443646
2023-01-11T03:32:17.730Z,9.443608
2023-01-11T03:33:17.706Z,9.443579
2023-01-11T03:34:17.710Z,9.443680
2023-01-11T03:35:17.688Z,9.443684
2023-01-11T03:36:17.702Z,9.443760
2023-01-11T03:37:17.727Z,9.443688
2023-01-11T03:38:17.667Z,9.443651
2023-01-11T03:39:17.673Z,9.443511
2023-01-11T03:40:17.671Z,9.443415
2023-01-11T03:41:17.652Z,9.443624
2023-01-11T03:42:17.646Z,9.443702
2023-01-11T03:43:18.143Z,9.443741
2023-01-11T03:44:18.631Z,9.443661
2023-01-11T03:45:17.643Z,9.443739
2023-01-11T03:46:17.675Z,9.443715
2023-01-11T03:47:17.627Z,9.443747
2023-01-11T03:48:17.628Z,9.443843
2023-01-11T03:49:17.616Z,9.443737
2023-01-11T03:50:17.601Z,9.443687
2023-01-11T03:51:17.616Z,9.443687
2023-01-11T03:52:17.619Z,9.443636
2023-01-11T03:53:17.604Z,9.443692
2023-01-11T03:54:17.597Z,9.443622
2023-01-11T03:55:17.593Z,9.443613
2023-01-11T03:56:17.562Z,9.443635
2023-01-11T03:57:17.566Z,9.443668
2023-01-11T03:58:17.577Z,9.443698
2023-01-11T03:59:17.555Z,9.443749
2023-01-11T04:00:17.552Z,9.443740
2023-01-11T04:01:17.602Z,9.443727
2023-01-11T04:02:17.536Z,9.443677
2023-01-11T04:03:17.530Z,9.443696
2023-01-11T04:04:17.605Z,9.443708
2023-01-11T04:05:17.541Z,9.443736
2023-01-11T04:06:17.507Z,9.443820
2023-01-11T04:07:17.525Z,9.443731
2023-01-11T04:08:17.502Z,9.443731
2023-01-11T04:09:17.506Z,9.443612
2023-01-11T04:10:17.523Z,9.443731
2023-01-11T04:11:17.483Z,9.443881
2023-01-11T04:12:17.477Z,9.443724
2023-01-11T04:13:17.471Z,9.443721
2023-01-11T04:14:17.515Z,9.443663
2023-01-11T04:15:17.474Z,9.443700
2023-01-11T04:16:17.472Z,9.443617
2023-01-11T04:17:17.443Z,9.443850
2023-01-11T04:18:17.445Z,9.443880
2023-01-11T04:19:17.441Z,9.443953
2023-01-11T04:20:17.461Z,9.443621
2023-01-11T04:21:17.439Z,9.443408
2023-01-11T04:22:17.429Z,9.443369
2023-01-11T04:23:17.433Z,9.443370
2023-01-11T04:24:17.406Z,9.443406
2023-01-11T04:25:17.415Z,9.443677
2023-01-11T04:26:17.493Z,9.443171
2023-01-11T04:27:17.394Z,9.443021
2023-01-11T04:28:17.382Z,9.443289
2023-01-11T04:29:17.399Z,9.443454
2023-01-11T04:30:17.393Z,9.443575
2023-01-11T04:31:17.440Z,9.443452
2023-01-11T04:32:17.457Z,9.443794
2023-01-11T04:33:17.359Z,9.443901
2023-01-11T04:34:17.349Z,9.443848
2023-01-11T04:35:17.367Z,9.443763
2023-01-11T04:36:17.341Z,9.443736
2023-01-11T04:37:17.347Z,9.443751
2023-01-11T04:38:17.336Z,9.443722
2023-01-11T04:39:17.341Z,9.443739
2023-01-11T04:40:17.364Z,9.443727
2023-01-11T04:41:17.322Z,9.443692
2023-01-11T04:42:17.306Z,9.443757
2023-01-11T04:43:17.294Z,9.443756
2023-01-11T04:44:17.337Z,9.443771
2023-01-11T04:45:17.295Z,9.443750
2023-01-11T04:46:17.296Z,9.443718
2023-01-11T04:47:17.367Z,9.443728
2023-01-11T04:48:17.269Z,9.443698
2023-01-11T04:49:17.261Z,9.443715
2023-01-11T04:50:17.312Z,9.443714
2023-01-11T04:51:17.243Z,9.443708
2023-01-11T04:52:17.285Z,9.443699
2023-01-11T04:53:17.315Z,9.443770
2023-01-11T04:54:17.228Z,9.443699
2023-01-11T04:55:17.225Z,9.443764
2023-01-11T04:56:17.237Z,9.443740
2023-01-11T04:57:17.345Z,9.443729
2023-01-11T04:58:17.212Z,9.443715
2023-01-11T04:59:17.212Z,9.443764
2023-01-11T05:00:17.223Z,9.443658
2023-01-11T05:01:17.275Z,9.443763
2023-01-11T05:02:17.205Z,9.443800
2023-01-11T05:03:17.296Z,9.443794
2023-01-11T05:04:17.237Z,9.443787
2023-01-11T05:05:17.191Z,9.443769
2023-01-11T05:06:17.169Z,9.443771
2023-01-11T05:07:17.226Z,9.443758
2023-01-11T05:08:17.173Z,9.443714
2023-01-11T05:09:17.159Z,9.443620
2023-01-11T05:10:17.149Z,9.443810
2023-01-11T05:11:17.124Z,9.443742
2023-01-11T05:12:17.133Z,9.443744
2023-01-11T05:13:17.148Z,9.443736
2023-01-11T05:14:17.125Z,9.443723
2023-01-11T05:15:17.134Z,9.443695
2023-01-11T05:16:17.144Z,9.443627
2023-01-11T05:17:17.158Z,9.443600
2023-01-11T05:18:17.112Z,9.443663
2023-01-11T05:19:17.610Z,9.443740
2023-01-11T05:20:17.117Z,9.443666
2023-01-11T05:21:17.079Z,9.443576
2023-01-11T05:22:17.072Z,9.443612
2023-01-11T05:23:17.078Z,9.443653
2023-01-11T05:24:18.102Z,9.443681
2023-01-11T05:25:17.061Z,9.443638
2023-01-11T05:26:17.069Z,9.443667
2023-01-11T05:27:17.071Z,9.443644
2023-01-11T05:28:17.071Z,9.443617
2023-01-11T05:29:17.057Z,9.443685
2023-01-11T05:30:17.040Z,9.443686
2023-01-11T05:31:17.107Z,9.443643
2023-01-11T05:32:17.038Z,9.443626
2023-01-11T05:33:17.079Z,9.443617
2023-01-11T05:34:17.046Z,9.443672
2023-01-11T05:35:17.038Z,9.443652
2023-01-11T05:36:17.197Z,9.443618
2023-01-11T05:37:16.997Z,9.443624
2023-01-11T05:38:17.027Z,9.443701
2023-01-11T05:39:16.995Z,9.443815
2023-01-11T05:40:17.000Z,9.443806
2023-01-11T05:41:17.005Z,9.443832
2023-01-11T05:42:16.978Z,9.443803
2023-01-11T05:43:16.949Z,9.443881
2023-01-11T05:44:16.978Z,9.443794
2023-01-11T05:45:16.957Z,9.443734
2023-01-11T05:46:17.013Z,9.443687
2023-01-11T05:47:16.953Z,9.443727
2023-01-11T05:48:16.922Z,9.443786
2023-01-11T05:49:16.987Z,9.443800
2023-01-11T05:50:16.987Z,9.443803
2023-01-11T05:51:16.931Z,9.443820
2023-01-11T05:52:16.907Z,9.443778
2023-01-11T05:53:16.912Z,9.443775
2023-01-11T05:54:16.940Z,9.443787
2023-01-11T05:55:16.918Z,9.443802
2023-01-11T05:56:16.886Z,9.443843
2023-01-11T05:57:16.903Z,9.443854
2023-01-11T05:58:16.862Z,9.443834
2023-01-11T05:59:16.915Z,9.443788
2023-01-11T06:00:16.932Z,9.443740
2023-01-11T06:01:16.886Z,9.443712
2023-01-11T06:02:16.938Z,9.443701
2023-01-11T06:03:16.935Z,9.443720
2023-01-11T06:04:16.852Z,9.443739
2023-01-11T06:05:16.840Z,9.443750
2023-01-11T06:06:16.820Z,9.443771
2023-01-11T06:07:16.832Z,9.443756
2023-01-11T06:08:16.812Z,9.443779
2023-01-11T06:09:16.837Z,9.443715
2023-01-11T06:10:16.827Z,9.443708
2023-01-11T06:11:16.878Z,9.443746
2023-01-11T06:12:16.806Z,9.443804
2023-01-11T06:13:16.828Z,9.443774
2023-01-11T06:14:16.803Z,9.443734
2023-01-11T06:15:16.775Z,9.443754
2023-01-11T06:16:16.826Z,9.443830
2023-01-11T06:17:16.805Z,9.443695
2023-01-11T06:18:16.744Z,9.443692
2023-01-11T06:19:16.797Z,9.443482
2023-01-11T06:20:16.748Z,9.443659
2023-01-11T06:21:16.763Z,9.443644
2023-01-11T06:22:16.728Z,9.443706
2023-01-11T06:23:17.752Z,9.443801
2023-01-11T06:24:16.715Z,9.443526
2023-01-11T06:25:16.713Z,9.443653
2023-01-11T06:26:16.752Z,9.443699
2023-01-11T06:27:16.699Z,9.443691
2023-01-11T06:28:16.713Z,9.443704
2023-01-11T06:29:16.721Z,9.443733
2023-01-11T06:30:16.702Z,9.443699
2023-01-11T06:31:17.871Z,9.443782
2023-01-11T06:32:17.671Z,9.443756
2023-01-11T06:33:16.692Z,9.443600
2023-01-11T06:34:16.680Z,9.443807
2023-01-11T06:35:16.652Z,9.443797
2023-01-11T06:36:16.674Z,9.443742
2023-01-11T06:37:16.658Z,9.443622
2023-01-11T06:38:16.681Z,9.443690
2023-01-11T06:39:16.701Z,9.443613
2023-01-11T06:40:16.634Z,9.443666
2023-01-11T06:41:16.630Z,9.443811
2023-01-11T06:42:16.646Z,9.443782
2023-01-11T06:43:16.619Z,9.443566
2023-01-11T06:44:16.627Z,9.443581
2023-01-11T06:45:16.607Z,9.443613
2023-01-11T06:46:16.660Z,9.443697
2023-01-11T06:47:16.595Z,9.443771
2023-01-11T06:48:16.578Z,9.443620
2023-01-11T06:49:16.601Z,9.443603
2023-01-11T06:50:16.565Z,9.443593
2023-01-11T06:51:16.551Z,9.443645
2023-01-11T06:52:16.567Z,9.443662
2023-01-11T06:53:16.565Z,9.443598
2023-01-11T06:54:16.531Z,9.443754
2023-01-11T06:55:16.583Z,9.443705
2023-01-11T06:56:16.532Z,9.443651
2023-01-11T06:57:16.523Z,9.443608
2023-01-11T06:58:16.529Z,9.443699
2023-01-11T06:59:16.543Z,9.443675
2023-01-11T07:00:16.520Z,9.443680
2023-01-11T07:01:16.632Z,9.443657
2023-01-11T07:02:16.488Z,9.443728
2023-01-11T07:03:16.486Z,9.443698
2023-01-11T07:04:16.491Z,9.443624
2023-01-11T07:05:18.876Z,9.443625
2023-01-11T07:06:17.488Z,9.443642
2023-01-11T07:07:16.484Z,9.443641
2023-01-11T07:08:16.499Z,9.443659
2023-01-11T07:09:16.465Z,9.443623
2023-01-11T07:10:16.456Z,9.443625
2023-01-11T07:11:16.505Z,9.443613
2023-01-11T07:12:16.445Z,9.443637
2023-01-11T07:13:16.521Z,9.443694
2023-01-11T07:14:16.442Z,9.443732
2023-01-11T07:15:16.439Z,9.443733
2023-01-11T07:16:16.491Z,9.443766
2023-01-11T07:17:16.423Z,9.443744
2023-01-11T07:18:17.019Z,9.443699
2023-01-11T07:19:16.428Z,9.443770
2023-01-11T07:20:16.407Z,9.443822
2023-01-11T07:21:16.419Z,9.443725
2023-01-11T07:22:16.416Z,9.443639
2023-01-11T07:23:16.426Z,9.443696
2023-01-11T07:24:16.388Z,9.443750
2023-01-11T07:25:16.375Z,9.443735
2023-01-11T07:26:16.479Z,9.443769
2023-01-11T07:27:16.363Z,9.443718
2023-01-11T07:28:16.368Z,9.443645
2023-01-11T07:29:16.407Z,9.443728
2023-01-11T07:30:16.370Z,9.443773
2023-01-11T07:31:17.430Z,9.443740
2023-01-11T07:32:16.350Z,9.443719
2023-01-11T07:33:16.349Z,9.443642
2023-01-11T07:34:16.329Z,9.443600
2023-01-11T07:35:16.361Z,9.443699
2023-01-11T07:36:16.372Z,9.443720
2023-01-11T07:37:28.283Z,9.443727
2023-01-11T07:38:17.333Z,9.443667
2023-01-11T07:39:16.315Z,9.443688
2023-01-11T07:40:16.300Z,9.443709
2023-01-11T07:41:16.343Z,9.443754
2023-01-11T07:42:16.287Z,9.443719
2023-01-11T07:43:16.279Z,9.443715
2023-01-11T07:44:16.308Z,9.443753
2023-01-11T07:45:16.326Z,9.443740
2023-01-11T07:46:16.347Z,9.443742
2023-01-11T07:47:16.350Z,9.443657
2023-01-11T07:48:16.264Z,9.443647
2023-01-11T07:49:16.262Z,9.443578
2023-01-11T07:50:16.243Z,9.443561
2023-01-11T07:51:16.280Z,9.443604
2023-01-11T07:52:16.252Z,9.443624
2023-01-11T07:53:16.222Z,9.443655
2023-01-11T07:54:16.243Z,9.443616
2023-01-11T07:55:16.216Z,9.443724
2023-01-11T07:56:16.196Z,9.443777
2023-01-11T07:57:17.258Z,9.443779
2023-01-11T07:58:16.197Z,9.443789
2023-01-11T07:59:16.186Z,9.443805
2023-01-11T08:00:16.196Z,9.443790
2023-01-11T08:01:16.199Z,9.443761
2023-01-11T08:02:16.250Z,9.443723
2023-01-11T08:03:16.432Z,9.443830
2023-01-11T08:04:16.194Z,9.443885
2023-01-11T08:05:16.181Z,9.443793
2023-01-11T08:06:16.181Z,9.443722
2023-01-11T08:07:16.148Z,9.443752
2023-01-11T08:08:16.145Z,9.443768
2023-01-11T08:09:16.126Z,9.443788
2023-01-11T08:10:16.130Z,9.443752
2023-01-11T08:11:16.114Z,9.443753
2023-01-11T08:12:16.109Z,9.443810
2023-01-11T08:13:16.133Z,9.443801
2023-01-11T08:14:16.159Z,9.443768
2023-01-11T08:15:16.123Z,9.443763
2023-01-11T08:16:16.157Z,9.443765
2023-01-11T08:17:16.098Z,9.443732
2023-01-11T08:18:16.098Z,9.443736
2023-01-11T08:19:16.074Z,9.443767
2023-01-11T08:20:16.091Z,9.443709
2023-01-11T08:21:16.069Z,9.443708
2023-01-11T08:22:16.068Z,9.443712
2023-01-11T08:23:16.076Z,9.443692
2023-01-11T08:24:16.060Z,9.443683
2023-01-11T08:25:16.035Z,9.443748
2023-01-11T08:26:16.038Z,9.443794
2023-01-11T08:27:16.019Z,9.443787
2023-01-11T08:28:16.023Z,9.443705
2023-01-11T08:29:16.014Z,9.443814
2023-01-11T08:30:16.028Z,9.443834
2023-01-11T08:31:16.061Z,9.443887
2023-01-11T08:32:16.014Z,9.443806
2023-01-11T08:33:16.002Z,9.443840
2023-01-11T08:34:16.023Z,9.443857
2023-01-11T08:35:15.985Z,9.443780
2023-01-11T08:36:15.974Z,9.443779
2023-01-11T08:37:17.002Z,9.443767
2023-01-11T08:38:15.974Z,9.443751
2023-01-11T08:39:15.960Z,9.443598
2023-01-11T08:40:15.979Z,9.443701
2023-01-11T08:41:15.960Z,9.443749
2023-01-11T08:42:15.961Z,9.443752
2023-01-11T08:43:15.955Z,9.443862
2023-01-11T08:44:22.360Z,9.443778
2023-01-11T08:45:16.919Z,9.443833
2023-01-11T08:46:16.018Z,9.443826
2023-01-11T08:47:15.952Z,9.443797
2023-01-11T08:48:15.927Z,9.443661
2023-01-11T08:49:15.939Z,9.443665
2023-01-11T08:50:15.918Z,9.443703
2023-01-11T08:51:15.915Z,9.443727
2023-01-11T08:52:15.911Z,9.443750
2023-01-11T08:53:15.895Z,9.443793
2023-01-11T08:54:15.906Z,9.443763
2023-01-11T08:55:15.896Z,9.443742
2023-01-11T08:56:15.861Z,9.443734
2023-01-11T08:57:15.858Z,9.443774
2023-01-11T08:58:15.876Z,9.443769
2023-01-11T08:59:15.858Z,9.443784
2023-01-11T09:00:15.846Z,9.443732
2023-01-11T09:01:15.895Z,9.443761
2023-01-11T09:02:15.847Z,9.443812
2023-01-11T09:03:15.827Z,9.443793
2023-01-11T09:04:24.705Z,9.443777
2023-01-11T09:05:18.457Z,9.443793
2023-01-11T09:06:16.819Z,9.443778
2023-01-11T09:07:15.804Z,9.443768
2023-01-11T09:08:15.830Z,9.443790
2023-01-11T09:09:15.880Z,9.443756
2023-01-11T09:10:15.843Z,9.443749
2023-01-11T09:11:16.785Z,9.443764
2023-01-11T09:12:15.805Z,9.443768
2023-01-11T09:13:15.780Z,9.443742
2023-01-11T09:14:15.764Z,9.443745
2023-01-11T09:15:15.781Z,9.443738
2023-01-11T09:16:15.772Z,9.443707
2023-01-11T09:17:15.744Z,9.443691
2023-01-11T09:18:15.748Z,9.443690
2023-01-11T09:19:15.748Z,9.443757
2023-01-11T09:20:15.761Z,9.443779
2023-01-11T09:21:15.743Z,9.443753
2023-01-11T09:22:15.744Z,9.443767
2023-01-11T09:23:15.734Z,9.443774
2023-01-11T09:24:15.715Z,9.443683
2023-01-11T09:25:15.727Z,9.443750
2023-01-11T09:26:15.808Z,9.443818
2023-01-11T09:27:15.718Z,9.443854
2023-01-11T09:28:15.691Z,9.443854
2023-01-11T09:29:15.741Z,9.443827
2023-01-11T09:30:15.703Z,9.443855
2023-01-11T09:31:15.705Z,9.443803
2023-01-11T09:32:15.668Z,9.443839
2023-01-11T09:33:15.664Z,9.443854
2023-01-11T09:34:15.666Z,9.443847
2023-01-11T09:35:15.674Z,9.443858
2023-01-11T09:36:15.663Z,9.443903
2023-01-11T09:37:15.638Z,9.443910
2023-01-11T09:38:15.636Z,9.443963
2023-01-11T09:39:15.639Z,9.443989
2023-01-11T09:40:15.656Z,9.443993
2023-01-11T09:41:15.636Z,9.443987
2023-01-11T09:42:15.649Z,9.443711
2023-01-11T09:43:15.609Z,9.443703
2023-01-11T09:44:15.626Z,9.443725
2023-01-11T09:45:15.627Z,9.443752
2023-01-11T09:46:15.677Z,9.443914
2023-01-11T09:47:15.619Z,9.443651
2023-01-11T09:48:15.596Z,9.443670
2023-01-11T09:49:15.597Z,9.443670
2023-01-11T09:50:15.575Z,9.443710
2023-01-11T09:51:15.614Z,9.443692
2023-01-11T09:52:15.603Z,9.443920
2023-01-11T09:53:15.541Z,9.443933
2023-01-11T09:54:15.542Z,9.443884
2023-01-11T09:55:15.541Z,9.443841
2023-01-11T09:56:15.537Z,9.443828
2023-01-11T09:57:15.564Z,9.443813
2023-01-11T09:58:16.571Z,9.443640
2023-01-11T09:59:15.511Z,9.443631
2023-01-11T10:00:15.552Z,9.443643
2023-01-11T10:01:15.635Z,9.443739
2023-01-11T10:02:18.014Z,9.443727
2023-01-11T10:03:15.494Z,9.443789
2023-01-11T10:04:15.502Z,9.443815
2023-01-11T10:05:15.511Z,9.443819
2023-01-11T10:06:15.474Z,9.443735
2023-01-11T10:07:15.465Z,9.443766
2023-01-11T10:18:25.683Z,9.443810
2023-01-11T10:18:31.449Z,9.443829
2023-01-11T10:18:33.752Z,9.443757
2023-01-11T10:18:37.347Z,9.443784
2023-01-11T10:18:42.707Z,9.443824
2023-01-11T10:19:36.494Z,9.443760
2023-01-11T10:20:17.498Z,9.443738
2023-01-11T10:21:15.396Z,9.443716
2023-01-11T10:22:15.386Z,9.443785
2023-01-11T10:23:15.380Z,9.443801
2023-01-11T10:24:15.388Z,9.443821
2023-01-11T10:25:15.349Z,9.443786
2023-01-11T10:26:15.344Z,9.443772
2023-01-11T10:27:15.408Z,9.443687
2023-01-11T10:28:15.404Z,9.443624
2023-01-11T10:29:16.016Z,9.443755
2023-01-11T10:30:15.328Z,9.443686
2023-01-11T10:31:15.373Z,9.443753
2023-01-11T10:32:15.381Z,9.443750
2023-01-11T10:33:15.306Z,9.443748
2023-01-11T10:34:15.325Z,9.443730
2023-01-11T10:35:15.331Z,9.443686
2023-01-11T10:36:15.299Z,9.443656
2023-01-11T10:37:15.312Z,9.443748
2023-01-11T10:38:15.267Z,9.443678
2023-01-11T10:39:15.254Z,9.443599
2023-01-11T10:40:15.319Z,9.443761
2023-01-11T10:41:15.249Z,9.443698
2023-01-11T10:42:15.246Z,9.443603
2023-01-11T10:43:15.264Z,9.443525
2023-01-11T10:44:15.225Z,9.443617
2023-01-11T10:45:16.272Z,9.443802
2023-01-11T10:46:15.217Z,9.443830
2023-01-11T10:47:15.208Z,9.443816
2023-01-11T10:48:15.205Z,9.443772
2023-01-11T10:49:15.202Z,9.443784
2023-01-11T10:50:15.210Z,9.443865
2023-01-11T10:51:15.206Z,9.443873
2023-01-11T10:52:15.239Z,9.443743
2023-01-11T10:53:15.215Z,9.443705
2023-01-11T10:54:15.180Z,9.443808
2023-01-11T10:55:15.183Z,9.443720
2023-01-11T10:56:15.194Z,9.443669
2023-01-11T10:57:15.156Z,9.443645
2023-01-11T10:58:15.163Z,9.443677
2023-01-11T10:59:15.149Z,9.443604
2023-01-11T11:00:15.131Z,9.443646
2023-01-11T11:01:15.177Z,9.443691
2023-01-11T11:02:15.286Z,9.443756
2023-01-11T11:03:15.128Z,9.443759
2023-01-11T11:04:15.141Z,9.443818
2023-01-11T11:05:15.109Z,9.443674
2023-01-11T11:06:15.103Z,9.443546
2023-01-11T11:07:15.153Z,9.443619
2023-01-11T11:08:15.093Z,9.443712
2023-01-11T11:09:15.092Z,9.443739
2023-01-11T11:10:15.076Z,9.443674
2023-01-11T11:11:15.070Z,9.443706
2023-01-11T11:12:15.075Z,9.443676
2023-01-11T11:13:15.070Z,9.443593
2023-01-11T11:14:15.054Z,9.443530
2023-01-11T11:15:15.087Z,9.443666
2023-01-11T11:16:15.147Z,9.443612
2023-01-11T11:17:15.065Z,9.443621
2023-01-11T11:18:15.044Z,9.443672
2023-01-11T11:19:15.033Z,9.443552
2023-01-11T11:20:15.002Z,9.443466
2023-01-11T11:21:15.004Z,9.443625
2023-01-11T11:22:15.043Z,9.443562
2023-01-11T11:23:15.047Z,9.443627
2023-01-11T11:24:14.976Z,9.443616
2023-01-11T11:25:14.991Z,9.443622
2023-01-11T11:26:14.977Z,9.443449
2023-01-11T11:27:15.023Z,9.443500
2023-01-11T11:28:14.946Z,9.443488
2023-01-11T11:29:14.956Z,9.443421
2023-01-11T11:30:14.945Z,9.443508
2023-01-11T11:31:14.986Z,9.443454
2023-01-11T11:32:14.939Z,9.443356
2023-01-11T11:33:15.011Z,9.443426
2023-01-11T11:34:14.925Z,9.443512
2023-01-11T11:35:14.906Z,9.443592
2023-01-11T11:36:14.895Z,9.443338
2023-01-11T11:37:14.894Z,9.443543
2023-01-11T11:38:14.921Z,9.443468
2023-01-11T11:39:14.885Z,9.443574
2023-01-11T11:40:14.869Z,9.443488
2023-01-11T11:41:15.512Z,9.443594
2023-01-11T11:42:14.868Z,9.443558
2023-01-11T11:43:14.890Z,9.443460
2023-01-11T11:44:14.891Z,9.443705
2023-01-11T11:45:14.856Z,9.443746
2023-01-11T11:46:19.380Z,9.443786
2023-01-11T11:47:15.828Z,9.443763
2023-01-11T11:48:14.868Z,9.443826
2023-01-11T11:49:14.820Z,9.443710
2023-01-11T11:50:15.947Z,9.443659